sensor_id;sensor_type;location;lat;lon;timestamp;pressure;altitude;pressure_sealevel;temperature;humidity
8253;BME280;61313;48.396;10.008;2023-05-22T00:01:32;95793.69;;;18.27;58.88
8253;BME280;61313;48.396;10.008;2023-05-22T00:03:57;95797.56;;;18.23;58.79
8253;BME280;61313;48.396;10.008;2023-05-22T00:06:23;95793.34;;;18.20;59.13
8253;BME280;61313;48.396;10.008;2023-05-22T00:08:48;95787.97;;;18.11;59.13
8253;BME280;61313;48.396;10.008;2023-05-22T00:11:14;95787.19;;;17.99;59.71
8253;BME280;61313;48.396;10.008;2023-05-22T00:13:39;95791.53;;;18.00;59.61
8253;BME280;61313;48.396;10.008;2023-05-22T00:16:05;95794.19;;;18.00;60.00
8253;BME280;61313;48.396;10.008;2023-05-22T00:18:30;95798.25;;;18.04;59.56
8253;BME280;61313;48.396;10.008;2023-05-22T00:20:56;95778.75;;;17.94;59.96
8253;BME280;61313;48.396;10.008;2023-05-22T00:23:23;95786.00;;;17.92;59.86
8253;BME280;61313;48.396;10.008;2023-05-22T00:25:48;95782.78;;;17.88;59.86
8253;BME280;61313;48.396;10.008;2023-05-22T00:28:14;95782.25;;;17.94;60.03
8253;BME280;61313;48.396;10.008;2023-05-22T00:30:40;95774.81;;;17.88;59.92
8253;BME280;61313;48.396;10.008;2023-05-22T00:33:05;95786.16;;;17.79;60.16
8253;BME280;61313;48.396;10.008;2023-05-22T00:35:31;95778.94;;;17.81;60.09
8253;BME280;61313;48.396;10.008;2023-05-22T00:37:56;95782.78;;;17.77;60.25
8253;BME280;61313;48.396;10.008;2023-05-22T00:40:21;95779.06;;;17.68;60.42
8253;BME280;61313;48.396;10.008;2023-05-22T00:42:47;95785.56;;;17.75;60.68
8253;BME280;61313;48.396;10.008;2023-05-22T00:45:13;95787.63;;;17.72;60.45
8253;BME280;61313;48.396;10.008;2023-05-22T00:47:39;95785.94;;;17.71;60.57
8253;BME280;61313;48.396;10.008;2023-05-22T00:50:06;95781.47;;;17.71;60.41
8253;BME280;61313;48.396;10.008;2023-05-22T00:52:37;95787.63;;;17.72;60.56
8253;BME280;61313;48.396;10.008;2023-05-22T00:55:04;95781.59;;;17.70;60.29
8253;BME280;61313;48.396;10.008;2023-05-22T00:57:31;95788.47;;;17.72;60.47
8253;BME280;61313;48.396;10.008;2023-05-22T00:59:58;95793.25;;;17.78;59.97
8253;BME280;61313;48.396;10.008;2023-05-22T01:02:24;95789.41;;;17.71;60.20
8253;BME280;61313;48.396;10.008;2023-05-22T01:04:50;95790.94;;;17.53;60.91
8253;BME280;61313;48.396;10.008;2023-05-22T01:07:16;95784.41;;;17.57;60.38
8253;BME280;61313;48.396;10.008;2023-05-22T01:09:42;95792.63;;;17.54;60.39
8253;BME280;61313;48.396;10.008;2023-05-22T01:14:54;95794.56;;;17.41;61.15
8253;BME280;61313;48.396;10.008;2023-05-22T01:17:49;95784.56;;;17.44;61.01
8253;BME280;61313;48.396;10.008;2023-05-22T01:20:34;95787.94;;;17.46;60.67
8253;BME280;61313;48.396;10.008;2023-05-22T01:23:19;95796.38;;;17.40;61.09
8253;BME280;61313;48.396;10.008;2023-05-22T01:31:17;95799.41;;;17.35;60.27
8253;BME280;61313;48.396;10.008;2023-05-22T01:33:57;95799.78;;;17.31;60.85
8253;BME280;61313;48.396;10.008;2023-05-22T01:36:27;95790.63;;;17.35;60.55
8253;BME280;61313;48.396;10.008;2023-05-22T01:38:53;95799.56;;;17.34;60.43
8253;BME280;61313;48.396;10.008;2023-05-22T01:41:19;95795.00;;;17.25;60.96
8253;BME280;61313;48.396;10.008;2023-05-22T01:43:46;95808.47;;;17.22;60.80
8253;BME280;61313;48.396;10.008;2023-05-22T01:46:12;95808.72;;;17.19;61.22
8253;BME280;61313;48.396;10.008;2023-05-22T01:48:37;95812.69;;;17.24;60.72
8253;BME280;61313;48.396;10.008;2023-05-22T01:51:22;95812.22;;;17.19;61.25
8253;BME280;61313;48.396;10.008;2023-05-22T01:56:41;95816.78;;;17.28;60.43
8253;BME280;61313;48.396;10.008;2023-05-22T01:59:33;95815.34;;;17.24;60.80
8253;BME280;61313;48.396;10.008;2023-05-22T02:02:04;95810.19;;;17.23;60.55
8253;BME280;61313;48.396;10.008;2023-05-22T02:04:30;95816.94;;;17.16;61.16
8253;BME280;61313;48.396;10.008;2023-05-22T02:06:58;95813.56;;;17.02;61.46
8253;BME280;61313;48.396;10.008;2023-05-22T02:09:28;95814.19;;;17.06;60.93
8253;BME280;61313;48.396;10.008;2023-05-22T02:11:54;95815.84;;;17.07;61.27
8253;BME280;61313;48.396;10.008;2023-05-22T02:14:20;95813.34;;;16.94;61.30
8253;BME280;61313;48.396;10.008;2023-05-22T02:16:46;95813.69;;;16.89;61.74
8253;BME280;61313;48.396;10.008;2023-05-22T02:19:13;95817.19;;;16.90;61.84
8253;BME280;61313;48.396;10.008;2023-05-22T02:21:39;95819.94;;;16.88;61.69
8253;BME280;61313;48.396;10.008;2023-05-22T02:24:04;95813.34;;;16.94;61.42
8253;BME280;61313;48.396;10.008;2023-05-22T02:26:30;95816.75;;;16.72;61.88
8253;BME280;61313;48.396;10.008;2023-05-22T02:28:55;95816.28;;;16.67;62.58
8253;BME280;61313;48.396;10.008;2023-05-22T02:31:21;95812.19;;;16.63;62.90
8253;BME280;61313;48.396;10.008;2023-05-22T02:33:46;95811.59;;;16.59;62.80
8253;BME280;61313;48.396;10.008;2023-05-22T02:36:12;95815.31;;;16.57;62.72
8253;BME280;61313;48.396;10.008;2023-05-22T02:38:38;95803.03;;;16.56;62.53
8253;BME280;61313;48.396;10.008;2023-05-22T02:41:04;95814.47;;;16.56;63.14
8253;BME280;61313;48.396;10.008;2023-05-22T02:43:30;95807.00;;;16.50;63.19
8253;BME280;61313;48.396;10.008;2023-05-22T02:45:55;95808.59;;;16.64;62.40
8253;BME280;61313;48.396;10.008;2023-05-22T02:48:21;95809.19;;;16.56;63.14
8253;BME280;61313;48.396;10.008;2023-05-22T02:50:46;95807.47;;;16.55;62.62
8253;BME280;61313;48.396;10.008;2023-05-22T02:53:14;95805.09;;;16.63;62.33
8253;BME280;61313;48.396;10.008;2023-05-22T02:55:41;95807.50;;;16.66;62.34
8253;BME280;61313;48.396;10.008;2023-05-22T02:58:07;95806.53;;;16.56;62.85
8253;BME280;61313;48.396;10.008;2023-05-22T03:00:41;95807.47;;;16.55;62.63
8253;BME280;61313;48.396;10.008;2023-05-22T03:03:07;95816.53;;;16.64;62.67
8253;BME280;61313;48.396;10.008;2023-05-22T03:05:32;95819.25;;;16.51;63.16
8253;BME280;61313;48.396;10.008;2023-05-22T03:07:58;95821.47;;;16.68;62.25
8253;BME280;61313;48.396;10.008;2023-05-22T03:10:23;95825.78;;;16.69;62.28
8253;BME280;61313;48.396;10.008;2023-05-22T03:12:49;95837.00;;;16.62;62.20
8253;BME280;61313;48.396;10.008;2023-05-22T03:15:19;95827.38;;;16.61;62.35
8253;BME280;61313;48.396;10.008;2023-05-22T03:17:44;95835.44;;;16.59;62.51
8253;BME280;61313;48.396;10.008;2023-05-22T03:20:10;95837.66;;;16.41;62.77
8253;BME280;61313;48.396;10.008;2023-05-22T03:22:44;95839.97;;;16.35;62.64
8253;BME280;61313;48.396;10.008;2023-05-22T03:25:12;95836.69;;;16.31;62.59
8253;BME280;61313;48.396;10.008;2023-05-22T03:27:38;95845.75;;;16.40;62.63
8253;BME280;61313;48.396;10.008;2023-05-22T03:30:05;95843.22;;;16.38;63.15
8253;BME280;61313;48.396;10.008;2023-05-22T03:32:31;95843.31;;;16.25;63.78
8253;BME280;61313;48.396;10.008;2023-05-22T03:34:57;95843.66;;;16.21;64.06
8253;BME280;61313;48.396;10.008;2023-05-22T03:37:22;95841.59;;;16.24;64.13
8253;BME280;61313;48.396;10.008;2023-05-22T03:39:48;95843.13;;;16.16;64.50
8253;BME280;61313;48.396;10.008;2023-05-22T03:42:13;95845.06;;;16.14;64.56
8253;BME280;61313;48.396;10.008;2023-05-22T03:44:40;95843.75;;;16.19;64.33
8253;BME280;61313;48.396;10.008;2023-05-22T03:47:05;95838.56;;;16.18;64.27
8253;BME280;61313;48.396;10.008;2023-05-22T03:49:31;95843.31;;;16.25;63.57
8253;BME280;61313;48.396;10.008;2023-05-22T03:51:56;95838.50;;;16.30;63.45
8253;BME280;61313;48.396;10.008;2023-05-22T03:54:21;95845.22;;;16.23;63.66
8253;BME280;61313;48.396;10.008;2023-05-22T03:56:48;95831.53;;;16.41;63.02
8253;BME280;61313;48.396;10.008;2023-05-22T03:59:13;95833.84;;;16.45;62.41
8253;BME280;61313;48.396;10.008;2023-05-22T04:01:39;95836.13;;;16.50;62.05
8253;BME280;61313;48.396;10.008;2023-05-22T04:04:04;95841.75;;;16.34;62.77
8253;BME280;61313;48.396;10.008;2023-05-22T04:06:30;95839.44;;;16.29;63.28
8253;BME280;61313;48.396;10.008;2023-05-22T04:08:58;95835.22;;;16.27;63.50
8253;BME280;61313;48.396;10.008;2023-05-22T04:11:23;95839.97;;;16.46;62.62
8253;BME280;61313;48.396;10.008;2023-05-22T04:13:49;95843.31;;;16.37;62.84
8253;BME280;61313;48.396;10.008;2023-05-22T04:16:17;95842.63;;;16.35;63.46
8253;BME280;61313;48.396;10.008;2023-05-22T04:18:42;95850.56;;;16.35;63.27
8253;BME280;61313;48.396;10.008;2023-05-22T04:21:08;95850.34;;;16.49;62.88
8253;BME280;61313;48.396;10.008;2023-05-22T04:23:34;95853.91;;;16.83;61.65
8253;BME280;61313;48.396;10.008;2023-05-22T04:25:59;95853.31;;;17.13;60.25
8253;BME280;61313;48.396;10.008;2023-05-22T04:28:27;95848.75;;;17.27;59.42
8253;BME280;61313;48.396;10.008;2023-05-22T04:30:57;95849.94;;;17.34;59.18
8253;BME280;61313;48.396;10.008;2023-05-22T04:33:22;95862.94;;;17.37;59.28
8253;BME280;61313;48.396;10.008;2023-05-22T04:35:50;95863.06;;;17.47;59.17
8253;BME280;61313;48.396;10.008;2023-05-22T04:38:16;95861.97;;;17.49;59.09
8253;BME280;61313;48.396;10.008;2023-05-22T04:40:42;95874.50;;;17.47;59.28
8253;BME280;61313;48.396;10.008;2023-05-22T04:43:09;95864.88;;;17.58;59.09
8253;BME280;61313;48.396;10.008;2023-05-22T04:45:35;95858.19;;;17.74;58.33
8253;BME280;61313;48.396;10.008;2023-05-22T04:48:01;95867.56;;;17.78;58.26
8253;BME280;61313;48.396;10.008;2023-05-22T04:50:27;95874.13;;;17.74;58.12
8253;BME280;61313;48.396;10.008;2023-05-22T04:52:54;95868.66;;;17.87;57.97
8253;BME280;61313;48.396;10.008;2023-05-22T04:55:21;95875.03;;;18.07;57.56
8253;BME280;61313;48.396;10.008;2023-05-22T04:57:46;95878.50;;;18.08;57.86
8253;BME280;61313;48.396;10.008;2023-05-22T05:00:12;95870.34;;;18.20;57.76
8253;BME280;61313;48.396;10.008;2023-05-22T05:02:39;95869.72;;;18.28;57.24
8253;BME280;61313;48.396;10.008;2023-05-22T05:05:05;95863.19;;;18.53;56.72
8253;BME280;61313;48.396;10.008;2023-05-22T05:07:31;95875.19;;;18.48;57.11
8253;BME280;61313;48.396;10.008;2023-05-22T05:09:56;95866.38;;;18.68;56.30
8253;BME280;61313;48.396;10.008;2023-05-22T05:12:21;95864.78;;;18.77;56.12
8253;BME280;61313;48.396;10.008;2023-05-22T05:14:47;95861.22;;;18.88;55.93
8253;BME280;61313;48.396;10.008;2023-05-22T05:17:12;95861.72;;;19.02;55.58
8253;BME280;61313;48.396;10.008;2023-05-22T05:19:38;95858.66;;;19.07;55.38
8253;BME280;61313;48.396;10.008;2023-05-22T05:22:03;95860.47;;;19.07;55.68
8253;BME280;61313;48.396;10.008;2023-05-22T05:24:29;95848.53;;;19.32;55.02
8253;BME280;61313;48.396;10.008;2023-05-22T05:26:54;95853.75;;;19.43;54.65
8253;BME280;61313;48.396;10.008;2023-05-22T05:29:20;95850.06;;;19.75;53.59
8253;BME280;61313;48.396;10.008;2023-05-22T05:31:45;95850.66;;;19.78;53.45
8253;BME280;61313;48.396;10.008;2023-05-22T05:34:11;95855.16;;;19.87;53.13
8253;BME280;61313;48.396;10.008;2023-05-22T05:36:37;95850.97;;;20.04;52.63
8253;BME280;61313;48.396;10.008;2023-05-22T05:39:03;95847.88;;;20.09;52.68
8253;BME280;61313;48.396;10.008;2023-05-22T05:41:28;95859.78;;;20.15;52.35
8253;BME280;61313;48.396;10.008;2023-05-22T05:43:53;95855.44;;;20.23;51.85
8253;BME280;61313;48.396;10.008;2023-05-22T05:46:23;95861.34;;;20.66;50.89
8253;BME280;61313;48.396;10.008;2023-05-22T05:48:49;95860.78;;;20.72;50.48
8253;BME280;61313;48.396;10.008;2023-05-22T05:51:14;95859.09;;;20.71;51.01
8253;BME280;61313;48.396;10.008;2023-05-22T05:53:40;95863.03;;;20.77;50.83
8253;BME280;61313;48.396;10.008;2023-05-22T05:56:06;95850.22;;;20.80;50.88
8253;BME280;61313;48.396;10.008;2023-05-22T05:58:32;95858.88;;;21.02;50.30
8253;BME280;61313;48.396;10.008;2023-05-22T06:00:57;95851.88;;;21.38;49.20
8253;BME280;61313;48.396;10.008;2023-05-22T06:03:23;95853.69;;;21.38;48.88
8253;BME280;61313;48.396;10.008;2023-05-22T06:05:50;95858.72;;;21.50;48.62
8253;BME280;61313;48.396;10.008;2023-05-22T06:08:15;95857.78;;;21.69;48.52
8253;BME280;61313;48.396;10.008;2023-05-22T06:10:40;95856.53;;;21.91;47.79
8253;BME280;61313;48.396;10.008;2023-05-22T06:13:06;95853.53;;;22.22;47.06
8253;BME280;61313;48.396;10.008;2023-05-22T06:15:32;95859.78;;;22.31;46.86
8253;BME280;61313;48.396;10.008;2023-05-22T06:17:58;95861.56;;;22.40;46.84
8253;BME280;61313;48.396;10.008;2023-05-22T06:20:23;95856.72;;;21.80;48.31
8253;BME280;61313;48.396;10.008;2023-05-22T06:22:49;95862.94;;;21.98;48.77
8253;BME280;61313;48.396;10.008;2023-05-22T06:25:15;95864.09;;;21.96;48.78
8253;BME280;61313;48.396;10.008;2023-05-22T06:27:41;95857.13;;;22.31;47.72
8253;BME280;61313;48.396;10.008;2023-05-22T06:30:07;95863.50;;;22.20;47.80
8253;BME280;61313;48.396;10.008;2023-05-22T06:32:33;95856.91;;;21.96;48.85
8253;BME280;61313;48.396;10.008;2023-05-22T06:34:58;95854.38;;;22.40;47.43
8253;BME280;61313;48.396;10.008;2023-05-22T06:37:24;95849.13;;;22.75;46.64
8253;BME280;61313;48.396;10.008;2023-05-22T06:39:49;95852.75;;;22.66;46.73
8253;BME280;61313;48.396;10.008;2023-05-22T06:42:15;95853.91;;;22.89;46.26
8253;BME280;61313;48.396;10.008;2023-05-22T06:44:40;95855.22;;;22.85;45.83
8253;BME280;61313;48.396;10.008;2023-05-22T06:47:05;95853.94;;;23.15;45.69
8253;BME280;61313;48.396;10.008;2023-05-22T06:49:31;95854.38;;;23.37;45.25
8253;BME280;61313;48.396;10.008;2023-05-22T06:51:56;95856.34;;;23.00;46.08
8253;BME280;61313;48.396;10.008;2023-05-22T06:54:22;95859.75;;;23.37;45.54
8253;BME280;61313;48.396;10.008;2023-05-22T06:56:47;95853.78;;;23.51;45.29
8253;BME280;61313;48.396;10.008;2023-05-22T06:59:12;95857.09;;;23.11;46.05
8253;BME280;61313;48.396;10.008;2023-05-22T07:01:38;95853.25;;;23.48;45.42
8253;BME280;61313;48.396;10.008;2023-05-22T07:04:03;95864.75;;;23.32;45.50
8253;BME280;61313;48.396;10.008;2023-05-22T07:06:32;95865.63;;;23.75;44.75
8253;BME280;61313;48.396;10.008;2023-05-22T07:09:03;95864.84;;;23.99;44.23
8253;BME280;61313;48.396;10.008;2023-05-22T07:11:29;95854.66;;;24.11;43.85
8253;BME280;61313;48.396;10.008;2023-05-22T07:13:55;95866.66;;;24.57;42.65
8253;BME280;61313;48.396;10.008;2023-05-22T07:16:21;95861.28;;;24.57;42.43
8253;BME280;61313;48.396;10.008;2023-05-22T07:18:47;95867.94;;;24.28;42.98
8253;BME280;61313;48.396;10.008;2023-05-22T07:21:12;95862.91;;;24.42;42.68
8253;BME280;61313;48.396;10.008;2023-05-22T07:23:38;95864.28;;;24.54;42.88
8253;BME280;61313;48.396;10.008;2023-05-22T07:26:03;95861.97;;;24.67;42.53
8253;BME280;61313;48.396;10.008;2023-05-22T07:28:29;95864.63;;;24.92;41.73
8253;BME280;61313;48.396;10.008;2023-05-22T07:30:54;95858.44;;;24.50;42.67
8253;BME280;61313;48.396;10.008;2023-05-22T07:33:20;95862.09;;;24.41;43.27
8253;BME280;61313;48.396;10.008;2023-05-22T07:35:46;95865.25;;;24.45;43.42
8253;BME280;61313;48.396;10.008;2023-05-22T07:38:11;95866.66;;;24.74;43.12
8253;BME280;61313;48.396;10.008;2023-05-22T07:40:37;95860.22;;;24.25;44.43
8253;BME280;61313;48.396;10.008;2023-05-22T07:43:02;95855.25;;;24.88;43.24
8253;BME280;61313;48.396;10.008;2023-05-22T07:45:28;95861.09;;;25.00;42.94
8253;BME280;61313;48.396;10.008;2023-05-22T07:47:53;95866.44;;;25.08;42.92
8253;BME280;61313;48.396;10.008;2023-05-22T07:50:19;95854.56;;;25.19;42.97
8253;BME280;61313;48.396;10.008;2023-05-22T07:52:44;95856.38;;;25.10;43.40
8253;BME280;61313;48.396;10.008;2023-05-22T07:55:10;95849.19;;;25.02;43.40
8253;BME280;61313;48.396;10.008;2023-05-22T07:57:37;95854.50;;;25.35;43.18
8253;BME280;61313;48.396;10.008;2023-05-22T08:00:03;95849.22;;;25.58;42.61
8253;BME280;61313;48.396;10.008;2023-05-22T08:02:38;95858.50;;;25.47;43.32
8253;BME280;61313;48.396;10.008;2023-05-22T08:05:04;95849.66;;;25.70;42.92
8253;BME280;61313;48.396;10.008;2023-05-22T08:07:30;95847.44;;;25.82;42.37
8253;BME280;61313;48.396;10.008;2023-05-22T08:09:57;95846.94;;;25.86;41.96
8253;BME280;61313;48.396;10.008;2023-05-22T08:12:22;95851.44;;;25.94;42.20
8253;BME280;61313;48.396;10.008;2023-05-22T08:14:48;95848.81;;;25.77;42.16
8253;BME280;61313;48.396;10.008;2023-05-22T08:17:13;95849.78;;;25.85;41.94
8253;BME280;61313;48.396;10.008;2023-05-22T08:19:39;95845.94;;;25.79;41.50
8253;BME280;61313;48.396;10.008;2023-05-22T08:22:04;95851.41;;;26.02;40.80
8253;BME280;61313;48.396;10.008;2023-05-22T08:24:30;95848.16;;;26.07;40.53
8253;BME280;61313;48.396;10.008;2023-05-22T08:26:56;95846.25;;;25.92;41.35
8253;BME280;61313;48.396;10.008;2023-05-22T08:29:23;95847.88;;;26.02;42.32
8253;BME280;61313;48.396;10.008;2023-05-22T08:31:48;95851.56;;;26.01;42.21
8253;BME280;61313;48.396;10.008;2023-05-22T08:34:14;95850.06;;;25.98;42.42
8253;BME280;61313;48.396;10.008;2023-05-22T08:36:39;95847.06;;;25.93;42.58
8253;BME280;61313;48.396;10.008;2023-05-22T08:39:05;95846.06;;;25.86;43.08
8253;BME280;61313;48.396;10.008;2023-05-22T08:41:31;95848.63;;;25.87;43.08
8253;BME280;61313;48.396;10.008;2023-05-22T08:43:57;95847.25;;;25.91;42.58
8253;BME280;61313;48.396;10.008;2023-05-22T08:46:23;95852.34;;;26.09;42.06
8253;BME280;61313;48.396;10.008;2023-05-22T08:48:55;95839.75;;;26.10;41.89
8253;BME280;61313;48.396;10.008;2023-05-22T08:51:21;95837.56;;;26.36;41.43
8253;BME280;61313;48.396;10.008;2023-05-22T08:53:54;95836.66;;;26.44;41.00
8253;BME280;61313;48.396;10.008;2023-05-22T08:56:20;95834.09;;;26.51;40.94
8253;BME280;61313;48.396;10.008;2023-05-22T08:58:46;95836.28;;;26.47;41.00
8253;BME280;61313;48.396;10.008;2023-05-22T09:01:14;95830.56;;;26.27;41.67
8253;BME280;61313;48.396;10.008;2023-05-22T09:03:41;95833.34;;;26.34;41.19
8253;BME280;61313;48.396;10.008;2023-05-22T09:06:06;95830.16;;;26.15;41.93
8253;BME280;61313;48.396;10.008;2023-05-22T09:08:33;95831.69;;;26.10;42.06
8253;BME280;61313;48.396;10.008;2023-05-22T09:10:58;95833.34;;;26.34;41.84
8253;BME280;61313;48.396;10.008;2023-05-22T09:13:29;95835.03;;;26.12;42.02
8253;BME280;61313;48.396;10.008;2023-05-22T09:16:08;95832.97;;;26.22;42.01
8253;BME280;61313;48.396;10.008;2023-05-22T09:18:35;95834.84;;;25.43;42.89
8253;BME280;61313;48.396;10.008;2023-05-22T09:21:01;95837.63;;;25.58;43.30
8253;BME280;61313;48.396;10.008;2023-05-22T09:23:28;95831.31;;;25.90;43.18
8253;BME280;61313;48.396;10.008;2023-05-22T09:25:58;95830.91;;;26.24;42.11
8253;BME280;61313;48.396;10.008;2023-05-22T09:28:24;95826.44;;;26.39;41.59
8253;BME280;61313;48.396;10.008;2023-05-22T09:30:54;95831.72;;;26.56;41.32
8253;BME280;61313;48.396;10.008;2023-05-22T09:33:21;95829.88;;;26.56;40.72
8253;BME280;61313;48.396;10.008;2023-05-22T09:35:48;95826.81;;;26.59;40.74
8253;BME280;61313;48.396;10.008;2023-05-22T09:38:15;95826.34;;;26.56;41.39
8253;BME280;61313;48.396;10.008;2023-05-22T09:40:41;95831.94;;;26.23;42.43
8253;BME280;61313;48.396;10.008;2023-05-22T09:43:10;95834.13;;;26.19;42.18
8253;BME280;61313;48.396;10.008;2023-05-22T09:45:37;95823.94;;;25.44;43.01
8253;BME280;61313;48.396;10.008;2023-05-22T09:48:04;95832.44;;;25.56;43.50
8253;BME280;61313;48.396;10.008;2023-05-22T09:50:30;95824.94;;;25.74;43.17
8253;BME280;61313;48.396;10.008;2023-05-22T09:53:00;95827.31;;;25.77;42.60
8253;BME280;61313;48.396;10.008;2023-05-22T09:55:26;95831.31;;;25.90;43.21
8253;BME280;61313;48.396;10.008;2023-05-22T09:57:52;95830.69;;;26.11;42.04
8253;BME280;61313;48.396;10.008;2023-05-22T10:00:18;95827.03;;;26.27;41.96
8253;BME280;61313;48.396;10.008;2023-05-22T10:02:46;95820.97;;;26.48;41.53
8253;BME280;61313;48.396;10.008;2023-05-22T10:05:12;95826.91;;;26.43;41.41
8253;BME280;61313;48.396;10.008;2023-05-22T10:07:54;95832.56;;;26.56;41.14
8253;BME280;61313;48.396;10.008;2023-05-22T10:10:21;95826.22;;;26.72;40.74
8253;BME280;61313;48.396;10.008;2023-05-22T10:15:18;95824.75;;;26.85;40.69
8253;BME280;61313;48.396;10.008;2023-05-22T10:17:45;95822.16;;;26.91;40.11
8253;BME280;61313;48.396;10.008;2023-05-22T10:20:11;95820.69;;;26.89;40.75
8253;BME280;61313;48.396;10.008;2023-05-22T10:22:37;95824.66;;;26.93;40.47
8253;BME280;61313;48.396;10.008;2023-05-22T10:25:04;95816.28;;;26.88;40.53
8253;BME280;61313;48.396;10.008;2023-05-22T10:27:30;95814.69;;;26.78;40.22
8253;BME280;61313;48.396;10.008;2023-05-22T10:32:39;95812.22;;;26.77;40.28
8253;BME280;61313;48.396;10.008;2023-05-22T10:35:31;95811.13;;;26.86;40.10
8253;BME280;61313;48.396;10.008;2023-05-22T10:38:30;95802.38;;;26.84;39.78
8253;BME280;61313;48.396;10.008;2023-05-22T10:41:02;95813.41;;;26.74;40.41
8253;BME280;61313;48.396;10.008;2023-05-22T10:43:31;95807.94;;;26.82;40.38
8253;BME280;61313;48.396;10.008;2023-05-22T10:46:01;95801.44;;;26.92;40.16
8253;BME280;61313;48.396;10.008;2023-05-22T10:48:29;95806.53;;;26.72;39.96
8253;BME280;61313;48.396;10.008;2023-05-22T10:50:54;95803.84;;;26.49;40.69
8253;BME280;61313;48.396;10.008;2023-05-22T10:53:28;95807.06;;;26.21;41.60
8253;BME280;61313;48.396;10.008;2023-05-22T10:55:56;95799.53;;;26.16;41.89
8253;BME280;61313;48.396;10.008;2023-05-22T10:58:30;95792.13;;;26.18;41.88
8253;BME280;61313;48.396;10.008;2023-05-22T11:08:58;95788.78;;;26.16;41.63
8253;BME280;61313;48.396;10.008;2023-05-22T11:11:25;95782.56;;;26.39;41.75
8253;BME280;61313;48.396;10.008;2023-05-22T11:13:51;95779.25;;;26.75;40.48
8253;BME280;61313;48.396;10.008;2023-05-22T11:16:17;95784.34;;;26.24;41.48
8253;BME280;61313;48.396;10.008;2023-05-22T11:18:43;95782.31;;;26.26;41.24
8253;BME280;61313;48.396;10.008;2023-05-22T11:21:09;95774.66;;;26.14;41.92
8253;BME280;61313;48.396;10.008;2023-05-22T11:23:36;95786.25;;;26.38;41.51
8253;BME280;61313;48.396;10.008;2023-05-22T11:26:21;95768.81;;;26.11;42.21
8253;BME280;61313;48.396;10.008;2023-05-22T11:28:49;95774.78;;;25.98;42.31
8253;BME280;61313;48.396;10.008;2023-05-22T11:31:16;95774.03;;;25.81;42.38
8253;BME280;61313;48.396;10.008;2023-05-22T11:33:42;95764.34;;;25.72;42.65
8253;BME280;61313;48.396;10.008;2023-05-22T11:36:09;95766.34;;;25.70;42.32
8253;BME280;61313;48.396;10.008;2023-05-22T11:38:34;95767.00;;;26.03;41.27
8253;BME280;61313;48.396;10.008;2023-05-22T11:41:00;95768.41;;;25.99;40.97
8253;BME280;61313;48.396;10.008;2023-05-22T11:43:29;95764.38;;;25.64;41.86
8253;BME280;61313;48.396;10.008;2023-05-22T11:46:04;95761.34;;;25.67;41.41
8253;BME280;61313;48.396;10.008;2023-05-22T11:48:31;95755.03;;;25.83;40.82
8253;BME280;61313;48.396;10.008;2023-05-22T11:50:56;95761.03;;;25.93;40.97
8253;BME280;61313;48.396;10.008;2023-05-22T11:53:22;95755.09;;;26.06;41.06
8253;BME280;61313;48.396;10.008;2023-05-22T11:55:47;95764.69;;;25.69;41.39
8253;BME280;61313;48.396;10.008;2023-05-22T11:58:13;95757.53;;;25.61;41.03
8253;BME280;61313;48.396;10.008;2023-05-22T12:00:39;95755.53;;;25.86;40.20
8253;BME280;61313;48.396;10.008;2023-05-22T12:03:06;95744.91;;;26.16;39.63
8253;BME280;61313;48.396;10.008;2023-05-22T12:05:32;95742.38;;;26.37;39.36
8253;BME280;61313;48.396;10.008;2023-05-22T12:07:57;95740.25;;;26.33;39.39
8253;BME280;61313;48.396;10.008;2023-05-22T12:10:24;95743.44;;;26.13;38.93
8253;BME280;61313;48.396;10.008;2023-05-22T12:12:50;95750.06;;;26.26;39.51
8253;BME280;61313;48.396;10.008;2023-05-22T12:15:18;95751.81;;;26.33;39.19
8253;BME280;61313;48.396;10.008;2023-05-22T12:17:45;95741.06;;;26.33;39.22
8253;BME280;61313;48.396;10.008;2023-05-22T12:20:12;95748.00;;;26.51;38.77
8253;BME280;61313;48.396;10.008;2023-05-22T12:22:42;95750.06;;;26.64;37.55
8253;BME280;61313;48.396;10.008;2023-05-22T12:25:16;95753.50;;;26.57;37.61
8253;BME280;61313;48.396;10.008;2023-05-22T12:27:42;95750.03;;;26.49;37.58
8253;BME280;61313;48.396;10.008;2023-05-22T12:30:11;95746.69;;;26.47;37.66
8253;BME280;61313;48.396;10.008;2023-05-22T12:32:38;95753.97;;;26.38;38.03
8253;BME280;61313;48.396;10.008;2023-05-22T12:35:04;95750.59;;;26.21;37.30
8253;BME280;61313;48.396;10.008;2023-05-22T12:37:32;95749.09;;;25.95;37.59
8253;BME280;61313;48.396;10.008;2023-05-22T12:40:02;95759.00;;;25.95;37.63
8253;BME280;61313;48.396;10.008;2023-05-22T12:42:28;95764.25;;;25.88;37.39
8253;BME280;61313;48.396;10.008;2023-05-22T12:44:57;95759.91;;;25.79;38.73
8253;BME280;61313;48.396;10.008;2023-05-22T12:47:24;95758.00;;;25.65;39.70
8253;BME280;61313;48.396;10.008;2023-05-22T12:49:50;95761.13;;;25.45;40.63
8253;BME280;61313;48.396;10.008;2023-05-22T12:52:15;95764.91;;;25.28;41.04
8253;BME280;61313;48.396;10.008;2023-05-22T12:54:41;95770.38;;;25.34;40.24
8253;BME280;61313;48.396;10.008;2023-05-22T12:57:07;95762.84;;;25.30;40.45
8253;BME280;61313;48.396;10.008;2023-05-22T12:59:32;95754.09;;;25.36;42.73
8253;BME280;61313;48.396;10.008;2023-05-22T13:01:58;95757.09;;;25.41;43.70
8253;BME280;61313;48.396;10.008;2023-05-22T13:04:27;95756.44;;;25.39;45.28
8253;BME280;61313;48.396;10.008;2023-05-22T13:06:53;95753.75;;;25.39;45.49
8253;BME280;61313;48.396;10.008;2023-05-22T13:09:18;95754.41;;;25.49;45.52
8253;BME280;61313;48.396;10.008;2023-05-22T13:11:45;95760.81;;;25.40;47.38
8253;BME280;61313;48.396;10.008;2023-05-22T13:14:10;95750.91;;;25.41;46.26
8253;BME280;61313;48.396;10.008;2023-05-22T13:16:36;95743.66;;;25.49;45.83
8253;BME280;61313;48.396;10.008;2023-05-22T13:19:01;95749.75;;;25.66;43.30
8253;BME280;61313;48.396;10.008;2023-05-22T13:21:27;95743.50;;;25.74;42.67
8253;BME280;61313;48.396;10.008;2023-05-22T13:23:52;95747.59;;;25.93;43.03